Mc Clelland, Iowa
Current Conditions -  °F | °C
As of 2:15 AM on Monday 22 Dec 2014 (Local Time) from KCBF Reporting Station
Haze Haze  
Wind Chill: 35°   Ceiling: 400
Heat Index: 43°   Visibility: 2.5mi
Dew Point: 43°   Wind: 15mph
Humidity: 100%   Direction: 170°S
Pressure: 29.59"   Gusts: 22mph
Location:  41.3329°N, 95.6819°W
Report Text: KCBF 220815Z AUTO 17013G19KT 2 1/2SM BR OVC004 06/06 A2959 RMK AO2
Loading
Personal Weather Stations






























Interactive Weather Map New forecast layout! Learn more

10-Day Weather Forecast

Advertisements
Track Severe Weather on mobile